createdAt,value
2023-05-21T00:00:54.381Z,68.32
2023-05-21T00:03:26.553Z,7.07
2023-05-21T00:05:55.337Z,71.35
2023-05-21T00:08:24.013Z,9.90
2023-05-21T00:10:52.384Z,77.65
2023-05-21T00:13:20.909Z,25.98
2023-05-21T00:15:49.379Z,27.95
2023-05-21T00:18:19.199Z,11.23
2023-05-21T00:20:47.924Z,8.82
2023-05-21T00:23:18.682Z,24.77
2023-05-21T00:25:47.177Z,60.45
2023-05-21T00:28:15.584Z,46.25
2023-05-21T00:30:44.393Z,46.28
2023-05-21T00:33:14.093Z,23.48
2023-05-21T00:35:44.236Z,11.43
2023-05-21T00:38:13.328Z,13.88
2023-05-21T00:40:42.645Z,22.58
2023-05-21T00:43:11.536Z,20.10
2023-05-21T00:45:41.508Z,16.05
2023-05-21T00:48:10.073Z,79.10
2023-05-21T00:50:39.897Z,97.60
2023-05-21T00:53:11.234Z,24.88
2023-05-21T00:55:40.238Z,19.30
2023-05-21T00:58:09.779Z,44.38
2023-05-21T01:00:40.709Z,8.43
2023-05-21T01:03:09.446Z,13.98
2023-05-21T01:05:40.773Z,25.15
2023-05-21T01:08:10.708Z,40.55
2023-05-21T01:10:39.628Z,176.70
2023-05-21T01:13:08.400Z,8.98
2023-05-21T01:15:38.644Z,11.60
2023-05-21T01:18:07.858Z,49.15
2023-05-21T01:20:38.054Z,13.50
2023-05-21T01:23:08.208Z,16.92
2023-05-21T01:25:37.288Z,83.63
2023-05-21T01:28:06.249Z,148.52
2023-05-21T01:30:35.584Z,59.80
2023-05-21T01:33:05.988Z,10.25
2023-05-21T01:35:39.969Z,7.68
2023-05-21T01:38:15.966Z,23.58
2023-05-21T01:40:49.963Z,13.73
2023-05-21T01:43:20.253Z,150.15
2023-05-21T01:45:49.107Z,145.85
2023-05-21T01:48:19.086Z,110.55
2023-05-21T01:50:48.824Z,56.85
2023-05-21T01:53:19.150Z,82.05
2023-05-21T01:55:47.611Z,37.88
2023-05-21T01:58:17.022Z,97.10
2023-05-21T02:00:46.792Z,78.38
2023-05-21T02:03:16.616Z,71.20
2023-05-21T02:05:45.419Z,79.13
2023-05-21T02:08:15.846Z,40.03
2023-05-21T02:10:45.772Z,79.75
2023-05-21T02:13:25.974Z,79.35
2023-05-21T02:15:56.354Z,111.20
2023-05-21T02:18:24.872Z,113.63
2023-05-21T02:20:53.333Z,114.97
2023-05-21T02:23:21.661Z,194.77
2023-05-21T02:25:51.757Z,64.35
2023-05-21T02:28:21.516Z,195.60
2023-05-21T02:30:49.913Z,90.63
2023-05-21T02:33:20.181Z,93.82
2023-05-21T02:35:48.655Z,76.60
2023-05-21T02:38:19.623Z,97.85
2023-05-21T02:40:47.873Z,57.20
2023-05-21T02:43:17.580Z,42.90
2023-05-21T02:45:46.051Z,11.95
2023-05-21T02:48:14.498Z,47.90
2023-05-21T02:50:42.553Z,33.33
2023-05-21T02:53:10.902Z,12.98
2023-05-21T02:55:39.263Z,104.38
2023-05-21T02:58:07.682Z,60.83
2023-05-21T03:00:37.292Z,19.40
2023-05-21T03:03:05.723Z,40.72
2023-05-21T03:05:33.851Z,209.10
2023-05-21T03:08:02.207Z,99.03
2023-05-21T03:10:30.428Z,44.40
2023-05-21T03:12:59.016Z,46.85
2023-05-21T03:15:27.689Z,99.32
2023-05-21T03:17:57.390Z,32.78
2023-05-21T03:20:25.758Z,21.67
2023-05-21T03:22:55.173Z,65.10
2023-05-21T03:25:25.251Z,24.10
2023-05-21T03:27:57.200Z,22.20
2023-05-21T03:30:25.885Z,9.07
2023-05-21T03:32:53.970Z,7.72
2023-05-21T03:35:23.667Z,7.00
2023-05-21T03:37:51.871Z,6.88
2023-05-21T03:40:20.106Z,7.70
2023-05-21T03:42:48.320Z,8.57
2023-05-21T03:45:16.763Z,7.22
2023-05-21T03:47:44.969Z,8.20
2023-05-21T03:50:13.661Z,7.88
2023-05-21T03:52:44.159Z,7.80
2023-05-21T03:55:12.599Z,7.68
2023-05-21T03:57:41.267Z,7.68
2023-05-21T04:00:10.415Z,8.38
2023-05-21T04:02:38.822Z,7.20
2023-05-21T04:05:08.005Z,7.85
2023-05-21T04:07:38.360Z,7.55
2023-05-21T04:10:09.682Z,6.80
2023-05-21T04:12:37.965Z,7.20
2023-05-21T04:15:07.886Z,7.70
2023-05-21T04:17:36.123Z,7.10
2023-05-21T04:20:05.132Z,7.85
2023-05-21T04:22:33.925Z,8.05
2023-05-21T04:25:02.498Z,7.38
2023-05-21T04:27:32.056Z,7.18
2023-05-21T04:30:00.478Z,7.38
2023-05-21T04:32:28.852Z,8.15
2023-05-21T04:34:57.623Z,7.90
2023-05-21T04:37:25.807Z,7.50
2023-05-21T04:39:55.373Z,7.30
2023-05-21T04:42:24.137Z,6.85
2023-05-21T04:44:55.884Z,7.43
2023-05-21T04:47:24.227Z,7.47
2023-05-21T04:49:53.601Z,7.90
2023-05-21T04:52:22.075Z,8.23
2023-05-21T04:54:50.204Z,7.47
2023-05-21T04:57:18.650Z,8.27
2023-05-21T04:59:48.041Z,8.45
2023-05-21T05:02:17.622Z,8.38
2023-05-21T05:04:46.657Z,9.98
2023-05-21T05:07:15.208Z,8.55
2023-05-21T05:09:43.420Z,8.10
2023-05-21T05:12:11.700Z,8.38
2023-05-21T05:14:39.827Z,8.00
2023-05-21T05:17:10.210Z,7.88
2023-05-21T05:19:40.103Z,7.85
2023-05-21T05:22:08.615Z,7.93
2023-05-21T05:24:36.755Z,7.28
2023-05-21T05:27:05.077Z,8.77
2023-05-21T05:29:33.561Z,8.00
2023-05-21T05:32:01.810Z,7.82
2023-05-21T05:34:29.937Z,8.30
2023-05-21T05:36:59.493Z,8.10
2023-05-21T05:39:27.588Z,7.80
2023-05-21T05:41:56.012Z,8.05
2023-05-21T05:44:24.217Z,8.07
2023-05-21T05:46:52.558Z,7.45
2023-05-21T05:49:20.784Z,7.90
2023-05-21T05:51:49.194Z,8.10
2023-05-21T05:54:19.597Z,7.82
2023-05-21T05:56:47.677Z,7.68
2023-05-21T05:59:16.771Z,8.40
2023-05-21T06:01:45.066Z,7.03
2023-05-21T06:04:13.177Z,7.72
2023-05-21T06:06:42.232Z,6.90
2023-05-21T06:09:10.574Z,7.28
2023-05-21T06:11:40.390Z,8.25
2023-05-21T06:14:08.964Z,7.30
2023-05-21T06:16:37.965Z,6.97
2023-05-21T06:19:06.328Z,7.00
2023-05-21T06:21:34.818Z,7.82
2023-05-21T06:24:02.965Z,7.75
2023-05-21T06:26:31.896Z,7.68
2023-05-21T06:29:01.779Z,8.23
2023-05-21T06:31:33.379Z,6.70
2023-05-21T06:34:02.813Z,6.90
2023-05-21T06:36:32.571Z,6.43
2023-05-21T06:39:01.250Z,6.38
2023-05-21T06:41:29.515Z,7.07
2023-05-21T06:43:58.390Z,6.15
2023-05-21T06:46:28.278Z,5.82
2023-05-21T06:48:56.826Z,7.47
2023-05-21T06:51:25.289Z,6.75
2023-05-21T06:53:53.647Z,6.65
2023-05-21T06:56:22.126Z,6.68
2023-05-21T06:58:50.388Z,6.72
2023-05-21T07:01:18.726Z,6.40
2023-05-21T07:03:48.649Z,6.40
2023-05-21T07:06:16.980Z,6.32
2023-05-21T07:08:45.468Z,5.95
2023-05-21T07:11:13.739Z,6.55
2023-05-21T07:13:42.013Z,6.15
2023-05-21T07:16:10.387Z,6.40
2023-05-21T07:18:39.780Z,5.70
2023-05-21T07:21:09.475Z,5.53
2023-05-21T07:23:37.567Z,5.95
2023-05-21T07:26:06.311Z,5.65
2023-05-21T07:28:34.574Z,5.50
2023-05-21T07:31:03.216Z,6.10
2023-05-21T07:33:31.723Z,5.82
2023-05-21T07:36:00.220Z,5.68
2023-05-21T07:38:30.627Z,6.70
2023-05-21T07:40:58.809Z,6.55
2023-05-21T07:43:26.976Z,6.20
2023-05-21T07:45:55.661Z,5.93
2023-05-21T07:48:23.787Z,6.10
2023-05-21T07:50:52.832Z,5.50
2023-05-21T07:53:21.359Z,6.20
2023-05-21T07:55:51.805Z,6.30
2023-05-21T07:58:20.319Z,6.45
2023-05-21T08:00:51.141Z,6.32
2023-05-21T08:03:20.684Z,5.93
2023-05-21T08:05:50.868Z,5.60
2023-05-21T08:08:20.080Z,6.05
2023-05-21T08:10:49.602Z,5.53
2023-05-21T08:13:19.634Z,5.65
2023-05-21T08:15:52.035Z,5.50
2023-05-21T08:18:21.173Z,5.75
2023-05-21T08:20:50.544Z,5.75
2023-05-21T08:23:19.218Z,5.68
2023-05-21T08:25:47.569Z,6.18
2023-05-21T08:28:15.881Z,6.82
2023-05-21T08:30:45.682Z,6.13
2023-05-21T08:33:14.013Z,6.55
2023-05-21T08:35:42.262Z,5.65
2023-05-21T08:38:10.678Z,5.90
2023-05-21T08:40:39.268Z,5.95
2023-05-21T08:43:07.658Z,5.47
2023-05-21T08:45:38.294Z,5.97
2023-05-21T08:48:11.578Z,6.03
2023-05-21T08:50:40.245Z,5.95
2023-05-21T08:53:15.967Z,6.28
2023-05-21T08:55:54.228Z,5.75
2023-05-21T08:58:23.065Z,6.43
2023-05-21T09:00:51.982Z,6.43
2023-05-21T09:03:22.556Z,5.30
2023-05-21T09:05:51.850Z,5.32
2023-05-21T09:08:23.204Z,5.47
2023-05-21T09:10:52.902Z,5.45
2023-05-21T09:13:22.038Z,5.45
2023-05-21T09:15:51.656Z,5.45
2023-05-21T09:18:21.396Z,6.22
2023-05-21T09:20:49.878Z,5.55
2023-05-21T09:23:19.338Z,4.40
2023-05-21T09:25:48.683Z,5.40
2023-05-21T09:28:18.292Z,6.82
2023-05-21T09:30:48.253Z,5.97
2023-05-21T09:33:28.024Z,6.22
2023-05-21T09:35:56.500Z,5.32
2023-05-21T09:38:25.194Z,5.45
2023-05-21T09:40:57.083Z,5.88
2023-05-21T09:43:25.444Z,6.70
2023-05-21T09:45:54.837Z,6.20
2023-05-21T09:48:39.738Z,5.85
2023-05-21T09:51:12.632Z,5.20
2023-05-21T09:53:51.424Z,5.70
2023-05-21T09:56:24.754Z,5.70
2023-05-21T09:58:54.960Z,5.95
2023-05-21T10:01:23.996Z,5.60
2023-05-21T10:03:58.033Z,6.03
2023-05-21T10:06:28.577Z,6.90
2023-05-21T10:08:58.198Z,6.10
2023-05-21T10:11:28.626Z,6.43
2023-05-21T10:13:59.864Z,5.85
2023-05-21T10:16:28.499Z,5.35
2023-05-21T10:19:00.238Z,5.82
2023-05-21T10:21:29.122Z,6.10
2023-05-21T10:23:58.862Z,5.53
2023-05-21T10:26:27.922Z,5.22
2023-05-21T10:29:00.738Z,6.18
2023-05-21T10:31:29.965Z,7.13
2023-05-21T10:34:00.442Z,6.72
2023-05-21T10:36:32.957Z,7.75
2023-05-21T10:39:03.384Z,6.57
2023-05-21T10:41:41.993Z,7.10
2023-05-21T10:44:15.894Z,6.95
2023-05-21T10:47:16.635Z,7.38
2023-05-21T10:50:09.397Z,6.28
2023-05-21T10:52:54.008Z,6.43
2023-05-21T10:55:36.782Z,6.70
2023-05-21T10:58:36.615Z,6.50
2023-05-21T11:01:05.976Z,7.63
2023-05-21T11:03:37.648Z,7.18
2023-05-21T11:06:08.674Z,6.88
2023-05-21T11:08:39.073Z,6.20
2023-05-21T11:11:07.429Z,4.95
2023-05-21T11:13:49.086Z,4.40
2023-05-21T11:16:18.065Z,5.20
2023-05-21T11:19:02.079Z,5.38
2023-05-21T11:24:09.075Z,3.80
2023-05-21T11:27:04.988Z,4.55
2023-05-21T11:29:48.030Z,5.35
2023-05-21T11:32:17.842Z,4.40
2023-05-21T11:34:47.472Z,4.75
2023-05-21T11:37:44.053Z,4.90
2023-05-21T11:40:30.585Z,4.70
2023-05-21T11:42:58.783Z,4.35
2023-05-21T11:45:32.212Z,4.03
2023-05-21T11:48:01.818Z,4.38
2023-05-21T11:50:33.788Z,4.03
2023-05-21T11:53:04.460Z,4.10
2023-05-21T11:55:33.325Z,5.25
2023-05-21T11:58:02.853Z,4.07
2023-05-21T12:00:31.157Z,4.25
2023-05-21T12:02:59.511Z,4.20
2023-05-21T12:05:28.514Z,4.57
2023-05-21T12:07:58.799Z,4.35
2023-05-21T12:10:28.555Z,4.60
2023-05-21T12:12:57.640Z,4.75
2023-05-21T12:15:28.148Z,4.47
2023-05-21T12:17:57.309Z,3.40
2023-05-21T12:20:28.752Z,4.35
2023-05-21T12:22:59.191Z,3.88
2023-05-21T12:25:29.936Z,5.38
2023-05-21T12:27:59.052Z,4.13
2023-05-21T12:30:28.008Z,3.53
2023-05-21T12:33:00.637Z,3.83
2023-05-21T12:35:29.365Z,4.03
2023-05-21T12:37:57.936Z,3.97
2023-05-21T12:40:39.595Z,4.75
2023-05-21T12:43:08.349Z,4.70
2023-05-21T12:45:39.588Z,4.22
2023-05-21T12:48:08.425Z,4.18
2023-05-21T12:50:40.754Z,4.20
2023-05-21T12:53:11.435Z,4.47
2023-05-21T12:55:41.935Z,3.70
2023-05-21T12:58:14.929Z,4.88
2023-05-21T13:00:45.651Z,4.60
2023-05-21T13:03:14.586Z,3.72
2023-05-21T13:05:43.658Z,3.97
2023-05-21T13:08:14.207Z,4.25
2023-05-21T13:10:44.029Z,4.10
2023-05-21T13:13:12.585Z,3.97
2023-05-21T13:15:41.191Z,4.25
2023-05-21T13:18:09.584Z,3.97
2023-05-21T13:20:38.466Z,4.97
2023-05-21T13:23:09.031Z,4.13
2023-05-21T13:25:39.112Z,4.72
2023-05-21T13:28:10.518Z,3.67
2023-05-21T13:30:39.277Z,4.63
2023-05-21T13:33:08.165Z,3.38
2023-05-21T13:35:36.751Z,4.05
2023-05-21T13:38:05.127Z,3.65
2023-05-21T13:40:33.468Z,3.80
2023-05-21T13:43:02.129Z,3.60
2023-05-21T13:45:32.828Z,3.70
2023-05-21T13:48:01.376Z,4.88
2023-05-21T13:50:29.557Z,4.20
2023-05-21T13:52:57.887Z,4.35
2023-05-21T13:55:26.480Z,4.55
2023-05-21T13:57:55.068Z,4.00
2023-05-21T14:00:23.759Z,3.38
2023-05-21T14:02:54.329Z,3.50
2023-05-21T14:05:22.821Z,3.45
2023-05-21T14:07:51.697Z,3.67
2023-05-21T14:10:20.921Z,4.20
2023-05-21T14:12:49.817Z,3.70
2023-05-21T14:15:18.924Z,4.15
2023-05-21T14:17:47.599Z,3.80
2023-05-21T14:20:19.254Z,4.10
2023-05-21T14:22:47.625Z,3.63
2023-05-21T14:25:16.450Z,3.92
2023-05-21T14:27:45.027Z,4.00
2023-05-21T14:30:13.717Z,4.55
2023-05-21T14:32:42.693Z,3.95
2023-05-21T14:35:11.557Z,3.55
2023-05-21T14:37:42.179Z,4.18
2023-05-21T14:40:11.580Z,4.10
2023-05-21T14:42:40.065Z,3.78
2023-05-21T14:45:18.803Z,4.13
2023-05-21T14:47:49.096Z,3.80
2023-05-21T14:50:18.784Z,4.20
2023-05-21T14:52:48.726Z,3.60
2023-05-21T14:55:18.642Z,3.75
2023-05-21T14:57:47.035Z,3.65
2023-05-21T15:00:16.447Z,3.88
2023-05-21T15:02:45.294Z,4.18
2023-05-21T15:05:14.186Z,3.72
2023-05-21T15:07:42.942Z,4.25
2023-05-21T15:10:13.507Z,3.78
2023-05-21T15:12:42.506Z,3.80
2023-05-21T15:15:12.761Z,3.70
2023-05-21T15:17:41.848Z,4.75
2023-05-21T15:20:11.081Z,4.85
2023-05-21T15:22:39.670Z,3.33
2023-05-21T15:25:09.180Z,3.53
2023-05-21T15:27:39.038Z,3.33
2023-05-21T15:30:08.735Z,4.07
2023-05-21T15:32:37.002Z,3.38
2023-05-21T15:35:05.651Z,3.40
2023-05-21T15:37:34.539Z,3.67
2023-05-21T15:40:03.654Z,3.10
2023-05-21T15:42:32.070Z,4.13
2023-05-21T15:45:01.932Z,4.00
2023-05-21T15:47:30.328Z,3.70
2023-05-21T15:50:00.450Z,3.78
2023-05-21T15:52:28.861Z,3.42
2023-05-21T15:54:57.176Z,3.80
2023-05-21T15:57:26.389Z,4.20
2023-05-21T15:59:54.765Z,4.15
2023-05-21T16:02:24.348Z,4.07
2023-05-21T16:04:53.200Z,3.13
2023-05-21T16:07:21.809Z,4.25
2023-05-21T16:09:50.418Z,3.83
2023-05-21T16:12:18.900Z,3.38
2023-05-21T16:14:50.280Z,3.88
2023-05-21T16:17:19.694Z,4.00
2023-05-21T16:19:49.677Z,3.03
2023-05-21T16:22:17.951Z,3.05
2023-05-21T16:24:46.276Z,3.08
2023-05-21T16:27:15.176Z,3.25
2023-05-21T16:29:43.750Z,3.28
2023-05-21T16:32:14.050Z,2.95
2023-05-21T16:34:42.690Z,3.05
2023-05-21T16:37:12.494Z,3.08
2023-05-21T16:39:41.022Z,2.85
2023-05-21T16:42:09.830Z,2.55
2023-05-21T16:44:39.425Z,3.63
2023-05-21T16:47:08.429Z,3.75
2023-05-21T16:49:37.290Z,3.53
2023-05-21T16:52:05.820Z,3.95
2023-05-21T16:54:35.476Z,3.08
2023-05-21T16:57:03.709Z,3.90
2023-05-21T16:59:32.328Z,3.00
2023-05-21T17:02:01.326Z,3.53
2023-05-21T17:04:30.255Z,3.83
2023-05-21T17:06:59.076Z,3.80
2023-05-21T17:09:27.571Z,4.07
2023-05-21T17:11:57.623Z,3.92
2023-05-21T17:14:34.173Z,3.95
2023-05-21T17:17:03.454Z,4.18
2023-05-21T17:19:31.921Z,4.47
2023-05-21T17:22:00.581Z,4.40
2023-05-21T17:24:29.346Z,4.28
2023-05-21T17:26:59.224Z,4.57
2023-05-21T17:29:27.418Z,4.07
2023-05-21T17:31:56.023Z,4.63
2023-05-21T17:34:26.757Z,4.55
2023-05-21T17:36:55.560Z,4.38
2023-05-21T17:39:24.035Z,3.65
2023-05-21T17:41:52.471Z,3.83
2023-05-21T17:44:22.409Z,4.20
2023-05-21T17:46:52.078Z,4.00
2023-05-21T17:49:21.285Z,4.03
2023-05-21T17:51:50.128Z,4.32
2023-05-21T17:54:18.315Z,3.83
2023-05-21T17:56:47.356Z,3.35
2023-05-21T17:59:15.997Z,3.63
2023-05-21T18:01:45.646Z,4.65
2023-05-21T18:04:13.929Z,4.32
2023-05-21T18:06:42.601Z,4.10
2023-05-21T18:09:14.343Z,4.18
2023-05-21T18:11:44.724Z,4.00
2023-05-21T18:14:13.210Z,3.97
2023-05-21T18:16:42.048Z,4.13
2023-05-21T18:19:12.132Z,4.43
2023-05-21T18:21:40.633Z,4.00
2023-05-21T18:24:09.466Z,4.25
2023-05-21T18:26:38.091Z,4.18
2023-05-21T18:29:06.891Z,3.80
2023-05-21T18:31:35.153Z,4.35
2023-05-21T18:34:03.552Z,4.30
2023-05-21T18:36:39.170Z,4.53
2023-05-21T18:39:08.263Z,3.80
2023-05-21T18:41:37.485Z,4.80
2023-05-21T18:44:06.580Z,4.55
2023-05-21T18:46:35.036Z,4.38
2023-05-21T18:49:03.328Z,4.63
2023-05-21T18:51:33.858Z,4.72
2023-05-21T18:54:02.534Z,4.80
2023-05-21T18:56:31.141Z,4.57
2023-05-21T18:58:59.873Z,4.53
2023-05-21T19:01:28.179Z,5.07
2023-05-21T19:03:56.504Z,5.43
2023-05-21T19:06:25.654Z,5.07
2023-05-21T19:08:55.873Z,5.43
2023-05-21T19:11:27.228Z,5.80
2023-05-21T19:13:55.640Z,4.85
2023-05-21T19:16:23.758Z,5.50
2023-05-21T19:18:52.401Z,4.60
2023-05-21T19:21:21.413Z,4.90
2023-05-21T19:23:53.282Z,5.30
2023-05-21T19:26:23.861Z,5.78
2023-05-21T19:28:53.908Z,5.15
2023-05-21T19:31:23.881Z,6.05
2023-05-21T19:33:52.812Z,5.47
2023-05-21T19:36:22.911Z,6.13
2023-05-21T19:38:52.892Z,5.30
2023-05-21T19:41:22.702Z,5.15
2023-05-21T19:43:52.386Z,5.70
2023-05-21T19:46:21.092Z,4.68
2023-05-21T19:48:49.921Z,5.22
2023-05-21T19:51:18.155Z,6.45
2023-05-21T19:53:46.489Z,5.30
2023-05-21T19:56:14.999Z,5.30
2023-05-21T19:58:47.198Z,5.28
2023-05-21T20:01:17.644Z,6.30
2023-05-21T20:03:46.391Z,5.32
2023-05-21T20:06:17.025Z,4.75
2023-05-21T20:08:45.270Z,5.30
2023-05-21T20:11:13.540Z,5.07
2023-05-21T20:13:42.639Z,5.68
2023-05-21T20:16:12.868Z,4.78
2023-05-21T20:18:47.150Z,4.68
2023-05-21T20:21:15.535Z,5.22
2023-05-21T20:23:43.664Z,5.07
2023-05-21T20:26:11.965Z,4.95
2023-05-21T20:28:40.193Z,5.57
2023-05-21T20:31:08.983Z,5.55
2023-05-21T20:33:40.026Z,5.43
2023-05-21T20:36:10.477Z,5.63
2023-05-21T20:38:40.271Z,5.75
2023-05-21T20:41:08.759Z,5.45
2023-05-21T20:43:37.584Z,5.82
2023-05-21T20:46:05.962Z,5.75
2023-05-21T20:48:34.379Z,5.28
2023-05-21T20:51:04.551Z,5.45
2023-05-21T20:53:34.225Z,6.03
2023-05-21T20:56:02.400Z,16.83
2023-05-21T20:58:31.871Z,7.32
2023-05-21T21:01:01.963Z,5.78
2023-05-21T21:03:34.331Z,5.97
2023-05-21T21:06:03.313Z,6.40
2023-05-21T21:08:31.623Z,6.35
2023-05-21T21:11:01.142Z,6.47
2023-05-21T21:13:29.315Z,6.13
2023-05-21T21:15:57.683Z,5.47
2023-05-21T21:18:26.105Z,6.78
2023-05-21T21:20:54.468Z,6.22
2023-05-21T21:23:24.814Z,5.95
2023-05-21T21:25:53.094Z,5.85
2023-05-21T21:28:22.767Z,6.03
2023-05-21T21:30:51.520Z,6.38
2023-05-21T21:33:19.998Z,5.25
2023-05-21T21:35:48.188Z,5.38
2023-05-21T21:38:16.633Z,5.90
2023-05-21T21:40:44.786Z,5.50
2023-05-21T21:43:12.975Z,5.85
2023-05-21T21:45:42.441Z,5.45
2023-05-21T21:48:11.312Z,5.38
2023-05-21T21:50:39.800Z,6.07
2023-05-21T21:53:09.938Z,5.65
2023-05-21T21:55:38.119Z,5.70
2023-05-21T21:58:06.808Z,6.05
2023-05-21T22:00:34.898Z,5.53
2023-05-21T22:03:04.756Z,6.03
2023-05-21T22:05:32.943Z,6.20
2023-05-21T22:08:01.129Z,7.13
2023-05-21T22:10:29.307Z,6.65
2023-05-21T22:12:57.604Z,5.80
2023-05-21T22:15:28.597Z,6.40
2023-05-21T22:17:56.779Z,6.60
2023-05-21T22:20:29.390Z,6.88
2023-05-21T22:22:57.837Z,7.22
2023-05-21T22:25:26.491Z,6.30
2023-05-21T22:27:54.736Z,6.13
2023-05-21T22:30:23.234Z,6.72
2023-05-21T22:32:51.662Z,6.82
2023-05-21T22:35:20.528Z,5.95
2023-05-21T22:37:50.130Z,6.10
2023-05-21T22:40:18.318Z,6.30
2023-05-21T22:42:47.152Z,7.13
2023-05-21T22:45:15.409Z,6.20
2023-05-21T22:47:43.583Z,5.88
2023-05-21T22:50:12.976Z,6.60
2023-05-21T22:52:42.007Z,6.35
2023-05-21T22:55:11.844Z,6.30
2023-05-21T22:57:40.177Z,7.35
2023-05-21T23:00:10.888Z,6.97
2023-05-21T23:02:39.128Z,6.28
2023-05-21T23:05:07.648Z,6.93
2023-05-21T23:07:35.768Z,7.05
2023-05-21T23:10:04.136Z,6.95
2023-05-21T23:12:33.590Z,6.45
2023-05-21T23:15:01.811Z,7.55
2023-05-21T23:17:29.952Z,7.47
2023-05-21T23:19:59.572Z,7.30
2023-05-21T23:22:27.593Z,7.15
2023-05-21T23:24:55.672Z,7.20
2023-05-21T23:27:24.100Z,6.90
2023-05-21T23:29:53.574Z,7.25
2023-05-21T23:32:21.887Z,6.95
2023-05-21T23:34:50.105Z,7.22
2023-05-21T23:37:18.341Z,7.72
2023-05-21T23:39:49.818Z,7.22
2023-05-21T23:42:18.488Z,7.28
2023-05-21T23:44:46.587Z,7.03
2023-05-21T23:47:16.286Z,7.15
2023-05-21T23:49:44.295Z,7.22
2023-05-21T23:52:13.529Z,6.70
2023-05-21T23:54:41.710Z,6.45
2023-05-21T23:57:09.869Z,6.38
2023-05-21T23:59:38.163Z,7.07
